createdAt,value
2022-11-29T00:00:47.629Z,85.73
2022-11-29T00:05:51.630Z,85.52
2022-11-29T00:10:54.148Z,85.31
2022-11-29T00:16:01.314Z,85.83
2022-11-29T00:21:08.567Z,85.97
2022-11-29T00:26:11.097Z,85.85
2022-11-29T00:31:26.071Z,86.20
2022-11-29T00:36:29.069Z,85.76
2022-11-29T00:41:31.865Z,85.71
2022-11-29T00:46:34.406Z,85.46
2022-11-29T00:51:37.150Z,85.33
2022-11-29T00:56:40.293Z,85.69
2022-11-29T01:01:43.148Z,85.21
2022-11-29T01:06:45.802Z,85.70
2022-11-29T01:11:50.347Z,85.96
2022-11-29T01:16:52.892Z,85.93
2022-11-29T01:21:55.692Z,86.11
2022-11-29T01:26:58.291Z,86.46
2022-11-29T01:32:00.827Z,86.01
2022-11-29T01:37:03.427Z,85.66
2022-11-29T01:42:06.019Z,85.88
2022-11-29T01:47:11.240Z,85.98
2022-11-29T01:52:15.931Z,85.91
2022-11-29T01:57:20.554Z,85.85
2022-11-29T02:02:31.154Z,85.80
2022-11-29T02:07:34.367Z,85.51
2022-11-29T02:12:43.051Z,85.62
2022-11-29T02:18:06.756Z,86.50
2022-11-29T02:23:33.994Z,86.75
2022-11-29T02:29:05.002Z,87.55
2022-11-29T02:34:07.470Z,87.76
2022-11-29T02:39:54.307Z,87.35
2022-11-29T02:45:14.042Z,88.01
2022-11-29T02:50:51.118Z,86.99
2022-11-29T02:56:32.060Z,87.10
2022-11-29T03:02:04.189Z,86.68
2022-11-29T03:07:06.696Z,86.30
2022-11-29T03:12:30.461Z,86.33
2022-11-29T03:17:50.788Z,85.99
2022-11-29T03:23:09.598Z,86.12
2022-11-29T03:28:25.549Z,86.13
2022-11-29T03:33:32.190Z,86.18
2022-11-29T03:38:42.369Z,86.13
2022-11-29T03:44:03.774Z,86.40
2022-11-29T03:49:47.663Z,85.92
2022-11-29T03:55:06.011Z,85.78
2022-11-29T04:00:12.682Z,85.56
2022-11-29T04:05:38.781Z,85.64
2022-11-29T04:10:44.227Z,85.55
2022-11-29T04:16:21.068Z,85.71
2022-11-29T04:21:38.518Z,85.18
2022-11-29T04:27:26.062Z,85.34
2022-11-29T04:32:34.142Z,85.57
2022-11-29T04:38:04.491Z,85.46
2022-11-29T04:43:39.047Z,85.01
2022-11-29T04:49:11.132Z,84.43
2022-11-29T04:54:22.924Z,84.85
2022-11-29T04:59:43.760Z,84.48
2022-11-29T05:05:04.927Z,84.21
2022-11-29T05:10:36.010Z,84.65
2022-11-29T05:16:02.384Z,84.95
2022-11-29T05:21:44.054Z,84.67
2022-11-29T05:27:14.740Z,84.62
2022-11-29T05:32:44.723Z,84.43
2022-11-29T05:37:55.137Z,84.43
2022-11-29T05:43:12.135Z,84.78
2022-11-29T05:48:46.636Z,84.47
2022-11-29T05:54:05.184Z,84.58
2022-11-29T05:59:13.307Z,84.30
2022-11-29T06:04:46.655Z,84.22
2022-11-29T06:10:01.497Z,83.94
2022-11-29T06:15:16.595Z,83.68
2022-11-29T06:20:55.563Z,83.76
2022-11-29T06:26:26.729Z,83.03
2022-11-29T06:31:42.500Z,83.00
2022-11-29T06:36:53.326Z,82.80
2022-11-29T06:41:56.121Z,82.59
2022-11-29T06:46:58.677Z,82.21
2022-11-29T06:52:22.766Z,82.23
2022-11-29T06:57:52.021Z,81.52
2022-11-29T07:03:41.727Z,81.20
2022-11-29T07:08:45.676Z,80.91
2022-11-29T07:13:48.524Z,80.79
2022-11-29T07:19:03.974Z,80.84
2022-11-29T07:24:18.039Z,80.41
2022-11-29T07:29:41.872Z,80.24
2022-11-29T07:35:19.345Z,79.62
2022-11-29T07:40:45.927Z,79.37
2022-11-29T07:45:48.854Z,79.58
2022-11-29T07:50:51.433Z,78.83
2022-11-29T07:55:54.131Z,78.80
2022-11-29T08:00:56.882Z,78.40
2022-11-29T08:05:59.651Z,77.95
2022-11-29T08:11:02.285Z,77.41
2022-11-29T08:16:05.221Z,76.88
2022-11-29T08:21:08.727Z,76.70
2022-11-29T08:26:11.748Z,76.30
2022-11-29T08:31:14.536Z,75.90
2022-11-29T08:36:19.464Z,75.89
2022-11-29T08:41:21.996Z,75.50
2022-11-29T08:46:51.909Z,75.24
2022-11-29T08:52:14.616Z,74.38
2022-11-29T08:57:39.183Z,74.44
2022-11-29T09:02:40.121Z,74.27
2022-11-29T09:07:43.501Z,72.46
2022-11-29T09:12:46.448Z,72.82
2022-11-29T09:17:49.107Z,71.91
2022-11-29T09:22:52.626Z,71.17
2022-11-29T09:27:58.375Z,71.30
2022-11-29T09:33:02.868Z,70.35
2022-11-29T09:38:13.644Z,70.83
2022-11-29T09:43:24.860Z,71.27
2022-11-29T09:48:55.588Z,70.12
2022-11-29T09:54:06.509Z,70.20
2022-11-29T09:59:14.248Z,70.35
2022-11-29T10:04:25.522Z,69.84
2022-11-29T10:09:43.001Z,70.05
2022-11-29T10:15:04.479Z,69.71
2022-11-29T10:20:29.154Z,69.68
2022-11-29T10:25:37.867Z,69.77
2022-11-29T10:30:41.618Z,69.62
2022-11-29T10:35:46.111Z,70.01
2022-11-29T10:40:52.875Z,69.50
2022-11-29T10:45:56.424Z,69.32
2022-11-29T10:51:00.114Z,68.84
2022-11-29T10:56:14.630Z,68.82
2022-11-29T11:01:17.429Z,68.67
2022-11-29T11:06:42.571Z,68.53
2022-11-29T11:11:54.443Z,68.80
2022-11-29T11:17:20.163Z,67.84
2022-11-29T11:22:25.403Z,68.07
2022-11-29T11:27:35.345Z,68.14
2022-11-29T11:32:38.482Z,68.41
2022-11-29T11:37:41.116Z,68.10
2022-11-29T11:42:44.024Z,68.29
2022-11-29T11:47:54.174Z,68.64
2022-11-29T11:53:05.132Z,68.46
2022-11-29T11:58:13.865Z,68.82
2022-11-29T12:03:40.469Z,68.57
2022-11-29T12:08:45.046Z,68.83
2022-11-29T12:13:55.507Z,68.95
2022-11-29T12:19:07.225Z,69.41
2022-11-29T12:24:30.668Z,68.94
2022-11-29T12:29:35.430Z,69.20
2022-11-29T12:35:28.502Z,70.19
2022-11-29T12:40:42.325Z,70.69
2022-11-29T12:46:08.921Z,71.17
2022-11-29T12:51:39.930Z,71.88
2022-11-29T12:56:55.166Z,71.85
2022-11-29T13:02:26.788Z,71.84
2022-11-29T13:08:13.386Z,72.44
2022-11-29T13:13:47.927Z,72.33
2022-11-29T13:18:58.902Z,72.89
2022-11-29T13:24:10.043Z,72.58
2022-11-29T13:29:16.939Z,72.88
2022-11-29T13:34:31.154Z,73.35
2022-11-29T13:40:14.083Z,73.97
2022-11-29T13:45:25.675Z,74.85
2022-11-29T13:50:43.864Z,74.91
2022-11-29T13:55:59.998Z,75.06
2022-11-29T14:01:10.492Z,75.14
2022-11-29T14:06:33.384Z,75.43
2022-11-29T14:11:50.720Z,75.85
2022-11-29T14:16:58.636Z,76.17
2022-11-29T14:22:05.713Z,76.08
2022-11-29T14:27:14.233Z,76.64
2022-11-29T14:32:46.153Z,76.44
2022-11-29T14:38:13.944Z,76.30
2022-11-29T14:43:37.810Z,75.98
2022-11-29T14:49:02.341Z,75.97
2022-11-29T14:54:19.716Z,76.29
2022-11-29T14:59:50.212Z,76.01
2022-11-29T15:04:57.023Z,76.10
2022-11-29T15:10:05.358Z,75.74
2022-11-29T15:15:21.964Z,76.64
2022-11-29T15:20:43.053Z,76.70
2022-11-29T15:25:54.132Z,76.85
2022-11-29T15:31:09.822Z,76.93
2022-11-29T15:36:21.712Z,76.79
2022-11-29T15:41:31.792Z,76.63
2022-11-29T15:46:35.886Z,76.75
2022-11-29T15:51:39.641Z,77.25
2022-11-29T15:56:55.995Z,77.30
2022-11-29T16:02:02.813Z,77.17
2022-11-29T16:07:06.625Z,77.82
2022-11-29T16:12:15.296Z,77.92
2022-11-29T16:17:20.836Z,77.78
2022-11-29T16:22:24.414Z,77.82
2022-11-29T16:27:28.216Z,77.47
2022-11-29T16:32:34.129Z,77.72
2022-11-29T16:37:40.650Z,77.30
2022-11-29T16:43:06.482Z,77.03
2022-11-29T16:48:27.737Z,77.03
2022-11-29T16:53:44.327Z,77.13
2022-11-29T16:59:26.019Z,77.04
2022-11-29T17:04:24.317Z,77.01
2022-11-29T17:09:30.922Z,77.08
2022-11-29T17:14:33.550Z,77.23
2022-11-29T17:19:36.170Z,77.60
2022-11-29T17:24:44.778Z,78.04
2022-11-29T17:29:50.379Z,77.86
2022-11-29T17:34:52.949Z,76.86
2022-11-29T17:39:56.830Z,77.01
2022-11-29T17:45:00.186Z,76.99
2022-11-29T17:50:02.866Z,77.36
2022-11-29T17:55:06.593Z,77.59
2022-11-29T18:00:12.990Z,78.25
2022-11-29T18:05:15.640Z,78.16
2022-11-29T18:10:18.311Z,78.69
2022-11-29T18:15:21.006Z,78.27
2022-11-29T18:20:23.679Z,78.64
2022-11-29T18:25:41.631Z,78.12
2022-11-29T18:30:44.235Z,78.50
2022-11-29T18:35:47.398Z,78.68
2022-11-29T18:40:49.990Z,78.95
2022-11-29T18:45:53.734Z,79.41
2022-11-29T18:51:01.830Z,79.60
2022-11-29T18:56:10.278Z,79.25
2022-11-29T19:01:18.439Z,79.73
2022-11-29T19:06:31.768Z,79.78
2022-11-29T19:11:40.335Z,79.62
2022-11-29T19:16:45.780Z,79.73
2022-11-29T19:21:48.763Z,79.57
2022-11-29T19:26:51.390Z,79.89
2022-11-29T19:31:54.154Z,80.31
2022-11-29T19:36:56.761Z,80.36
2022-11-29T19:42:01.394Z,80.42
2022-11-29T19:47:04.106Z,80.42
2022-11-29T19:52:07.050Z,80.31
2022-11-29T19:57:10.092Z,80.24
2022-11-29T20:02:12.985Z,80.05
2022-11-29T20:07:15.588Z,80.28
2022-11-29T20:12:18.527Z,80.02
2022-11-29T20:17:22.063Z,79.97
2022-11-29T20:22:27.293Z,80.16
2022-11-29T20:27:29.968Z,80.19
2022-11-29T20:32:32.692Z,80.27
2022-11-29T20:37:45.733Z,80.37
2022-11-29T20:42:57.039Z,80.67
2022-11-29T20:48:13.149Z,80.61
2022-11-29T20:53:31.526Z,80.51
2022-11-29T20:58:34.681Z,80.46
2022-11-29T21:03:37.469Z,80.51
2022-11-29T21:08:40.079Z,80.16
2022-11-29T21:13:43.361Z,80.34
2022-11-29T21:18:48.470Z,80.41
2022-11-29T21:23:59.513Z,80.36
2022-11-29T21:29:15.791Z,80.15
2022-11-29T21:34:19.285Z,80.05
2022-11-29T21:39:22.699Z,79.90
2022-11-29T21:44:25.354Z,79.60
2022-11-29T21:49:28.357Z,79.24
2022-11-29T21:54:30.891Z,79.53
2022-11-29T21:59:33.446Z,79.49
2022-11-29T22:04:35.966Z,79.92
2022-11-29T22:09:38.672Z,80.35
2022-11-29T22:14:41.177Z,80.34
2022-11-29T22:19:43.674Z,80.45
2022-11-29T22:24:46.351Z,80.09
2022-11-29T22:29:49.531Z,80.50
2022-11-29T22:34:52.068Z,80.73
2022-11-29T22:39:54.614Z,80.54
2022-11-29T22:44:57.168Z,80.95
2022-11-29T22:49:59.737Z,80.64
2022-11-29T22:55:05.028Z,80.58
2022-11-29T23:00:08.715Z,80.72
2022-11-29T23:05:11.237Z,80.31
2022-11-29T23:10:13.719Z,80.57
2022-11-29T23:15:16.359Z,80.54
2022-11-29T23:20:18.864Z,80.70
2022-11-29T23:25:21.388Z,80.62
2022-11-29T23:30:24.040Z,80.62
2022-11-29T23:35:26.908Z,80.37
2022-11-29T23:40:29.514Z,80.06
2022-11-29T23:45:36.307Z,80.09
2022-11-29T23:50:38.898Z,80.52
2022-11-29T23:55:42.382Z,80.54
